Charlotte, North Carolina
Current Conditions -  °F | °C
As of 10:52 AM on Sunday 21 Dec 2014 (Local Time) from KCLT Reporting Station
Overcast Overcast  
Wind Chill:   Ceiling: 2200
Heat Index:   Visibility: 10mi
Dew Point:   Wind: 3mph
Humidity: 66%   Direction: 30°NNE
Pressure: 30.29"   Gusts: NA
Location:  35.22°N, 80.84°W
Report Text: KCLT 211552Z 03003KT 10SM OVC022 08/02 A3029 RMK AO2 SLP258 T00780017
Loading
Personal Weather Stations






























Interactive Weather Map New forecast layout! Learn more

10-Day Weather Forecast

Advertisements
Track Severe Weather on mobile